KPGD/PGD METAR and TAF weather

Enter ICAO airport designator
Station Type Date Time Source
KPGD METAR 2019/07/15 19:53 UTC NOAA

KPGD 151953Z 08005KT 10SM SCT050 34/21 A3006 RMK AO2 SLP181 TCU DSNT N-NE MOV W T03440206


Station Type Date Time Source
KPGD Decoded METAR 2019/07/15 19:53 UTC NOAA

PUNTA GORDA CHARLOTTE COUNTY, FL, United States (KPGD) 26-55N 82-00W 7M
Jul 15, 2019 - 03:53 PM EDT / 2019.07.15 1953 UTC
Wind: from the E (080 degrees) at 6 MPH (5 KT):0
Visibility: 10 mile(s):0
Sky conditions: partly cloudy
Weather: Towering cumulus clouds observed
Temperature: 93.9 F (34.4 C)
Heat index: 99.1 F (37.3 C):1
Dew Point: 69.1 F (20.6 C)
Relative Humidity: 44%
Pressure (altimeter): 30.06 in. Hg (1017 hPa)
ob: KPGD 151953Z 08005KT 10SM SCT050 34/21 A3006 RMK AO2 SLP181 TCU DSNT N-NE MOV W T03440206
cycle: 20

Station Type Date Time Source
KPGD TAF 2019/07/15 18:36 UTC NOAA

TAF KPGD 151734Z 1518/1618 10008KT P6SM BKN050
FM152000 08008KT P6SM VCTS BKN050CB
FM160100 08004KT P6SM SCT050 SCT250
FM160400 VRB03KT P6SM SCT250
FM161400 12006KT P6SM SCT025 SCT250
FM161700 14006KT P6SM SCT040 SCT250

Example: see airport list